Laneville, Texas
Current Conditions -  °F | °C
As of 12:35 PM on Sunday 21 Dec 2014 (Local Time) from KRFI Reporting Station
Overcast Overcast  
Wind Chill: 48°   Ceiling: 1100
Heat Index: 48°   Visibility: 10mi
Dew Point: 45°   Wind: 0mph
Humidity: 88%   Direction: NA
Pressure: 30.07"   Gusts: NA
Location:  31.97°N, 94.81°W
Report Text: KRFI 211835Z AUTO 00000KT 10SM BKN011 OVC016 09/07 A3007 RMK AO2 T00890070
Loading
Personal Weather Stations






























Interactive Weather Map New forecast layout! Learn more

10-Day Weather Forecast

Advertisements
Track Severe Weather on mobile